Time;durP1;ratioP1;P1;durP2;ratioP2;P2;SDS_P1;SDS_P2;PMS_P1;PMS_P2;Temp;Humidity;BMP_temperature;BMP_pressure;BME280_temperature;BME280_humidity;BME280_pressure;Samples;Min_cycle;Max_cycle;Signal;HPM_P1;HPM_P2
2021/12/10 07:07:05;;;;;;;20.27;7.17;;;;;;;2.87;81.36;98999.53;5089807;27;20189;-80
2021/12/10 07:09:30;;;;;;;15.30;6.87;;;;;;;2.82;82.16;98988.47;5089646;28;20044;-79
2021/12/10 07:11:55;;;;;;;12.93;6.27;;;;;;;2.89;81.77;98986.31;5089566;28;20036;-80
2021/12/10 07:14:22;;;;;;;10.40;5.97;;;;;;;2.73;81.89;98965.41;5089622;28;20481;-79
2021/12/10 07:16:50;;;;;;;16.80;6.25;;;;;;;2.85;81.83;98976.94;5089801;28;20020;-79
2021/12/10 07:19:16;;;;;;;13.70;6.15;;;;;;;2.94;81.83;98994.75;5088518;28;20067;-80
2021/12/10 07:21:41;;;;;;;10.73;5.50;;;;;;;2.83;81.86;98977.03;5087962;28;20511;-78
2021/12/10 07:24:10;;;;;;;16.15;6.53;;;;;;;2.96;81.50;98995.50;5086988;28;20032;-79
2021/12/10 07:26:38;;;;;;;20.08;6.63;;;;;;;2.98;81.64;98984.91;5088619;28;20032;-82
2021/12/10 07:29:04;;;;;;;13.98;6.13;;;;;;;2.99;81.70;98983.97;5089755;28;20028;-79
2021/12/10 07:31:31;;;;;;;16.42;6.20;;;;;;;2.79;81.83;98953.69;5089516;28;20023;-80
2021/12/10 07:33:57;;;;;;;14.18;6.28;;;;;;;3.01;81.42;98990.81;5089639;28;20444;-79
2021/12/10 07:36:24;;;;;;;20.45;6.30;;;;;;;3.03;81.62;98995.94;5088138;28;20047;-80
2021/12/10 07:38:50;;;;;;;18.92;6.25;;;;;;;2.92;81.59;98970.38;5085883;28;20024;-80
2021/12/10 07:41:15;;;;;;;13.35;5.95;;;;;;;2.86;81.89;98955.84;5078889;28;20067;-79
2021/12/10 07:43:41;;;;;;;12.68;5.70;;;;;;;2.98;82.49;98966.53;5079614;28;20028;-82
2021/12/10 07:46:06;;;;;;;10.90;6.00;;;;;;;3.05;82.65;98979.16;5085517;28;20073;-78
2021/12/10 07:48:34;;;;;;;12.52;5.20;;;;;;;3.05;nan;98979.16;5078227;28;20050;-80
2021/12/10 07:51:09;;;;;;;14.05;5.40;;;;;;;3.07;82.59;98989.59;5079113;28;20043;-80
2021/12/10 07:53:35;;;;;;;13.52;5.40;;;;;;;3.05;82.41;98984.41;5074668;28;20035;-79
2021/12/10 07:56:04;;;;;;;13.93;5.75;;;;;;;3.02;82.84;98983.78;5084383;28;20386;-82
2021/12/10 07:58:31;;;;;;;13.40;5.37;;;;;;;3.04;82.67;98984.53;5084982;28;20100;-79
2021/12/10 08:00:59;;;;;;;14.90;5.10;;;;;;;2.91;82.50;98971.31;5077679;28;20024;-79
2021/12/10 08:03:24;;;;;;;12.05;5.03;;;;;;;2.92;82.66;98975.63;5067439;28;20073;-80
2021/12/10 08:05:51;;;;;;;11.13;4.93;;;;;;;3.05;82.86;98994.09;5086086;28;20550;-78
2021/12/10 08:08:17;;;;;;;14.05;5.18;;;;;;;3.03;83.10;98983.69;5109151;28;20028;-78
2021/12/10 08:10:46;;;;;;;12.85;5.35;;;;;;;3.05;83.15;98973.06;5109159;28;20020;-78
2021/12/10 08:13:12;;;;;;;10.00;4.15;;;;;;;2.91;82.39;98952.91;5109130;28;20051;-78
2021/12/10 08:15:37;;;;;;;10.85;4.57;;;;;;;2.95;81.82;98968.41;5108674;28;20539;-80
2021/12/10 08:18:04;;;;;;;10.52;5.15;;;;;;;3.08;82.01;98988.63;5111569;28;20189;-80
2021/12/10 08:20:30;;;;;;;14.95;5.18;;;;;;;3.11;82.37;98994.53;5095372;28;20115;-80
2021/12/10 08:22:56;;;;;;;8.25;4.75;;;;;;;3.10;82.51;98981.53;5095167;28;20089;-81
2021/12/10 08:25:24;;;;;;;15.05;5.90;;;;;;;3.06;82.49;98980.88;5094868;28;20049;-78
2021/12/10 08:27:50;;;;;;;16.88;5.38;;;;;;;3.15;81.86;98988.19;5110550;28;20391;-80
2021/12/10 08:30:21;;;;;;;14.50;5.03;;;;;;;3.13;81.66;98997.94;5095348;28;20032;-79
2021/12/10 08:32:46;;;;;;;11.45;4.28;;;;;;;3.16;81.32;98986.38;5095137;28;20051;-78
2021/12/10 08:35:19;;;;;;;12.70;5.10;;;;;;;3.16;81.47;98989.00;5095424;28;20470;-80
2021/12/10 08:37:45;;;;;;;13.30;4.65;;;;;;;3.14;81.45;98989.09;5076487;28;20555;-80
2021/12/10 08:40:19;;;;;;;13.45;4.97;;;;;;;3.14;81.57;98988.25;5095084;28;20028;-80
2021/12/10 08:42:45;;;;;;;7.78;4.70;;;;;;;3.14;80.90;98994.34;5094971;28;20035;-79
2021/12/10 08:45:10;;;;;;;12.32;4.63;;;;;;;3.09;81.32;98995.56;5076460;28;20036;-81
2021/12/10 08:47:36;;;;;;;10.25;4.70;;;;;;;3.18;81.62;98998.50;5094411;28;20028;-78
2021/12/10 08:50:05;;;;;;;11.75;5.18;;;;;;;3.09;81.59;98985.06;5094963;28;20490;-78
2021/12/10 08:52:30;;;;;;;13.20;4.82;;;;;;;3.08;81.41;98978.13;5094775;28;20034;-81
2021/12/10 08:54:55;;;;;;;10.18;4.57;;;;;;;3.08;81.40;98970.25;5094798;28;20526;-80
2021/12/10 08:57:22;;;;;;;11.23;5.13;;;;;;;3.23;80.96;98995.56;5094400;28;20386;-80
2021/12/10 08:59:48;;;;;;;11.90;4.28;;;;;;;3.24;81.39;98994.63;5094836;28;20023;-78
2021/12/10 09:02:15;;;;;;;7.70;4.30;;;;;;;3.27;80.88;98996.22;5094773;28;20020;-82
2021/12/10 09:04:41;;;;;;;13.48;5.07;;;;;;;3.27;81.08;98991.81;5076156;28;20024;-79
2021/12/10 09:07:11;;;;;;;14.70;5.07;;;;;;;3.31;80.19;98990.66;5094158;28;20044;-80
2021/12/10 09:09:40;;;;;;;11.18;4.60;;;;;;;3.22;80.08;98974.66;5075746;28;20074;-78
2021/12/10 09:12:11;;;;;;;11.75;5.05;;;;;;;3.30;80.39;98994.25;5094029;28;20027;-79
2021/12/10 09:14:43;;;;;;;15.02;5.22;;;;;;;3.38;80.89;98996.38;5110077;28;20020;-80
2021/12/10 09:17:11;;;;;;;12.75;5.28;;;;;;;3.42;80.43;99003.13;5094190;28;20069;-79
2021/12/10 09:19:39;;;;;;;8.13;5.22;;;;;;;3.41;79.60;99012.81;5094039;28;20032;-80
2021/12/10 09:22:07;;;;;;;11.88;5.30;;;;;;;3.30;79.41;98993.41;5093770;28;20546;-79
2021/12/10 09:24:32;;;;;;;13.73;5.78;;;;;;;3.38;80.01;98997.25;5094245;28;20035;-78
2021/12/10 09:26:59;;;;;;;9.43;4.85;;;;;;;3.48;79.83;99008.00;5094032;28;20032;-79
2021/12/10 09:29:27;;;;;;;9.27;4.88;;;;;;;3.51;79.07;99007.81;5092880;28;20051;-82
2021/12/10 09:31:54;;;;;;;11.45;5.68;;;;;;;3.53;79.30;99008.56;5094087;28;20027;-77
2021/12/10 09:34:21;;;;;;;12.80;5.85;;;;;;;3.06;79.62;98933.59;5091775;28;20039;-77
2021/12/10 09:36:48;;;;;;;10.70;5.75;;;;;;;3.54;79.24;99002.34;5085019;28;20044;-77
2021/12/10 09:39:15;;;;;;;11.98;5.53;;;;;;;3.56;79.21;99004.88;5093930;28;20032;-77
2021/12/10 09:41:41;;;;;;;11.70;5.50;;;;;;;3.58;78.98;99014.34;5093357;28;20110;-78
2021/12/10 09:44:07;;;;;;;10.40;6.07;;;;;;;3.57;78.97;99015.28;5093784;28;20047;-78
2021/12/10 09:46:34;;;;;;;12.65;5.88;;;;;;;3.57;79.57;99017.94;5093799;28;20022;-80
2021/12/10 09:49:00;;;;;;;12.32;5.32;;;;;;;3.62;78.97;99015.84;5093818;28;20035;-78
2021/12/10 09:51:35;;;;;;;10.60;6.05;;;;;;;3.61;79.78;99006.25;5093445;28;20036;-79
2021/12/10 09:54:10;;;;;;;13.15;5.80;;;;;;;3.62;78.68;99015.00;5093542;28;20031;-78
2021/12/10 09:56:38;;;;;;;13.65;5.90;;;;;;;3.62;78.39;99015.00;5093540;28;20031;-79
2021/12/10 09:59:04;;;;;;;11.77;5.43;;;;;;;3.55;78.59;98996.16;5093820;28;20039;-78
2021/12/10 10:01:33;;;;;;;15.95;6.80;;;;;;;3.68;78.94;99011.13;5093293;28;20035;-78
2021/12/10 10:04:01;;;;;;;10.40;5.80;;;;;;;3.62;78.90;99007.13;5093214;28;20024;-77
2021/12/10 10:06:31;;;;;;;12.15;5.60;;;;;;;3.53;78.96;98989.28;5093285;28;20063;-78
2021/12/10 10:08:57;;;;;;;13.38;7.93;;;;;;;3.62;78.57;99002.72;5104196;28;20038;-79
2021/12/10 10:11:31;;;;;;;15.23;5.60;;;;;;;3.76;79.00;99019.38;5087046;28;20051;-79
2021/12/10 10:13:57;;;;;;;15.10;6.30;;;;;;;3.78;78.53;99023.59;5091561;28;20475;-79
2021/12/10 10:16:24;;;;;;;12.70;6.00;;;;;;;3.68;78.43;99005.88;5093453;28;20035;-79
2021/12/10 10:18:50;;;;;;;8.60;5.38;;;;;;;3.81;77.50;99023.38;5093514;28;20032;-79
2021/12/10 10:21:29;;;;;;;15.48;5.22;;;;;;;3.79;78.14;99027.06;5093206;28;20031;-77
2021/12/10 10:23:56;;;;;;;13.88;5.50;;;;;;;3.60;77.80;98993.22;5092864;28;20020;-77
2021/12/10 10:26:31;;;;;;;9.88;5.47;;;;;;;3.82;78.14;99016.34;5074719;28;20036;-77
2021/12/10 10:29:13;;;;;;;15.40;5.50;;;;;;;3.87;77.77;99027.41;5093230;28;20060;-79
2021/12/10 10:31:43;;;;;;;13.18;5.30;;;;;;;3.89;76.62;99027.31;5092972;28;20476;-78
2021/12/10 10:34:11;;;;;;;15.63;5.30;;;;;;;3.92;77.23;99020.06;5092977;28;20019;-79
2021/12/10 10:36:38;;;;;;;9.55;4.97;;;;;;;3.89;76.52;99029.94;5091655;28;20479;-78
2021/12/10 10:39:09;;;;;;;10.45;5.45;;;;;;;3.93;77.08;99032.25;5091889;28;20367;-83
2021/12/10 10:41:36;;;;;;;14.88;6.60;;;;;;;3.74;77.56;98994.97;5093997;28;20019;-79
2021/12/10 10:44:03;;;;;;;9.15;4.88;;;;;;;3.86;77.54;99008.16;5084582;28;20024;-78
2021/12/10 10:46:29;;;;;;;11.75;5.05;;;;;;;4.00;76.67;99030.06;5088533;28;20055;-80
2021/12/10 10:48:54;;;;;;;15.15;4.65;;;;;;;4.01;76.52;99030.00;5092233;28;20423;-79
2021/12/10 10:51:30;;;;;;;8.48;4.55;;;;;;;4.02;76.55;99031.66;5062420;28;20033;-78
2021/12/10 10:53:58;;;;;;;12.73;5.20;;;;;;;4.03;76.55;99027.25;5082760;28;20031;-80
2021/12/10 10:56:26;;;;;;;8.77;5.15;;;;;;;4.02;77.29;99036.91;5084319;28;20068;-79
2021/12/10 10:58:56;;;;;;;10.02;5.25;;;;;;;4.07;77.06;99032.22;5084887;28;20065;-82
2021/12/10 11:01:58;;;;;;;13.02;5.25;;;;;;;4.05;76.79;99036.72;5085130;28;20020;-84
2021/12/10 11:04:31;;;;;;;10.38;4.80;;;;;;;4.00;77.93;99028.31;5093766;28;20387;-80
2021/12/10 11:07:08;;;;;;;14.75;4.93;;;;;;;3.98;76.53;99030.19;5082292;28;20054;-80
2021/12/10 11:09:41;;;;;;;11.30;4.68;;;;;;;4.03;76.47;99043.03;5084109;28;20024;-81
2021/12/10 11:12:14;;;;;;;8.88;5.28;;;;;;;4.05;77.33;99039.34;5086063;28;20020;-79
2021/12/10 11:14:44;;;;;;;10.90;4.70;;;;;;;4.01;77.28;99034.41;5089807;28;20066;-78
2021/12/10 11:17:16;;;;;;;13.85;5.40;;;;;;;3.99;76.77;99023.13;5094357;28;20055;-80
2021/12/10 11:20:08;;;;;;;12.07;5.75;;;;;;;4.01;76.50;99031.78;5082511;28;20047;-77
2021/12/10 11:22:35;;;;;;;14.07;5.10;;;;;;;4.03;76.98;99041.25;5084204;28;20550;-80
2021/12/10 11:25:10;;;;;;;12.90;4.78;;;;;;;3.92;77.10;99022.69;5087231;28;20086;-79
2021/12/10 11:27:39;;;;;;;12.23;5.43;;;;;;;3.94;76.97;99033.09;5084759;28;20036;-78
2021/12/10 11:30:11;;;;;;;17.20;5.22;;;;;;;4.06;76.63;99046.31;5092271;28;20535;-78
2021/12/10 11:32:43;;;;;;;10.70;4.50;;;;;;;3.99;75.94;99054.69;5092309;28;20024;-79
2021/12/10 11:35:37;;;;;;;83.38;12.20;;;;;;;4.06;77.59;99053.38;5087419;28;20032;-80
2021/12/10 11:38:13;;;;;;;12.43;4.90;;;;;;;3.96;77.85;99060.16;5065935;28;20029;-79
2021/12/10 11:40:49;;;;;;;11.85;4.60;;;;;;;3.92;77.27;99064.78;5093301;28;20352;-79
2021/12/10 11:48:47;;;;;;;9.02;4.28;;;;;;;3.91;78.96;99059.59;5005867;28;20034;-78
2021/12/10 11:51:19;;;;;;;11.32;5.05;;;;;;;3.94;78.47;99060.28;4994334;28;20544;-79
2021/12/10 11:53:56;;;;;;;12.45;4.85;;;;;;;3.96;79.72;99060.16;5006977;28;20562;-80
2021/12/10 11:56:27;;;;;;;8.88;4.80;;;;;;;3.92;78.54;99062.16;5013977;28;20076;-79
2021/12/10 11:59:09;;;;;;;10.80;4.85;;;;;;;3.80;79.27;99053.25;5010391;28;20076;-78
2021/12/10 12:02:00;;;;;;;11.45;4.78;;;;;;;3.75;79.80;99043.97;5011780;28;20112;-83
2021/12/10 12:04:37;;;;;;;7.43;4.70;;;;;;;3.88;79.88;99068.53;5004349;28;20089;-80
2021/12/10 12:07:33;;;;;;;16.30;5.05;;;;;;;3.91;79.89;99072.75;4993750;28;20065;-79
2021/12/10 12:10:21;;;;;;;12.02;5.30;;;;;;;3.93;80.27;99076.13;5019541;28;20094;-79
2021/12/10 12:12:52;;;;;;;11.52;4.88;;;;;;;3.87;81.05;99067.69;5033251;28;20079;-80
2021/12/10 12:15:32;;;;;;;12.65;7.13;;;;;;;3.94;80.89;99086.56;5033439;28;20030;-79
2021/12/10 12:18:01;;;;;;;9.60;4.65;;;;;;;3.89;80.23;99067.59;5013363;28;20087;-78
2021/12/10 12:20:43;;;;;;;14.32;4.90;;;;;;;3.86;80.03;99073.06;5012182;28;20516;-79
2021/12/10 12:26:14;;;;;;;12.93;4.97;;;;;;;3.80;80.08;99069.03;5075754;28;20047;-80
2021/12/10 12:28:45;;;;;;;15.52;5.95;;;;;;;3.94;80.48;99083.94;5077152;28;20487;-78
2021/12/10 12:31:12;;;;;;;12.45;5.55;;;;;;;3.90;80.60;99078.97;5095093;28;20364;-81
2021/12/10 12:34:07;;;;;;;10.10;6.03;;;;;;;3.86;80.73;99066.00;5082509;28;20024;-80
2021/12/10 12:36:35;;;;;;;10.60;4.95;;;;;;;3.96;80.90;99091.72;5095114;28;20021;-78
2021/12/10 12:39:04;;;;;;;7.60;4.97;;;;;;;3.86;80.83;99086.22;5085980;28;20105;-78
2021/12/10 12:41:40;;;;;;;19.83;12.23;;;;;;;3.93;81.87;99108.53;5073143;28;20106;-77
2021/12/10 12:44:11;;;;;;;12.15;5.88;;;;;;;3.78;80.72;99093.75;5097387;28;20035;-77
2021/12/10 12:46:56;;;;;;;13.50;5.78;;;;;;;3.99;81.77;99113.41;5085930;28;20060;-77
2021/12/10 12:49:22;;;;;;;15.35;5.28;;;;;;;3.81;81.17;99104.91;5090726;28;20044;-78
2021/12/10 12:52:11;;;;;;;9.70;5.18;;;;;;;3.90;81.07;99124.50;5087142;28;20432;-77
2021/12/10 12:54:42;;;;;;;10.55;5.18;;;;;;;3.86;81.45;99121.22;5068983;28;20378;-79
2021/12/10 12:57:10;;;;;;;14.90;5.63;;;;;;;3.80;81.57;99118.16;5084278;28;20544;-77
2021/12/10 12:59:37;;;;;;;13.32;4.80;;;;;;;3.90;81.26;99128.94;5076937;28;20028;-77
2021/12/10 13:02:07;;;;;;;9.48;5.13;;;;;;;3.84;81.26;99132.78;5075997;28;20585;-78
2021/12/10 13:04:41;;;;;;;10.45;6.45;;;;;;;3.92;81.69;99137.56;5093915;28;20054;-77
2021/12/10 13:07:13;;;;;;;12.07;5.65;;;;;;;3.84;81.38;99122.28;5094437;28;20072;-78
2021/12/10 13:09:52;;;;;;;11.05;5.07;;;;;;;3.85;80.46;99132.72;5093348;28;20024;-77
2021/12/10 13:12:56;;;;;;;13.27;5.18;;;;;;;3.93;80.63;99147.97;5094300;28;20023;-77
2021/12/10 13:15:28;;;;;;;12.20;4.78;;;;;;;3.89;80.95;99145.66;5090655;28;20378;-79
2021/12/10 13:18:07;;;;;;;14.48;5.80;;;;;;;3.86;80.65;99158.06;5093922;28;20382;-79
2021/12/10 13:20:37;;;;;;;14.63;6.38;;;;;;;3.74;81.29;99139.59;5075425;28;20084;-78
2021/12/10 13:23:11;;;;;;;10.65;5.82;;;;;;;3.78;81.54;99141.06;5094403;28;20035;-77
2021/12/10 13:25:39;;;;;;;12.85;6.10;;;;;;;3.91;81.07;99159.53;5093723;28;20020;-78
2021/12/10 13:28:05;;;;;;;13.77;9.00;;;;;;;3.98;81.08;99164.31;5093677;28;20028;-77
2021/12/10 13:30:45;;;;;;;12.15;5.28;;;;;;;3.77;80.55;99142.84;5094131;28;20035;-78
2021/12/10 13:33:14;;;;;;;10.25;6.53;;;;;;;4.00;80.80;99170.34;5094052;28;20024;-78
2021/12/10 13:35:39;;;;;;;10.93;5.75;;;;;;;4.03;80.29;99179.78;5081572;28;20032;-79
2021/12/10 13:38:06;;;;;;;12.82;8.82;;;;;;;3.86;80.20;99159.84;5089039;28;20390;-78
2021/12/10 13:40:35;;;;;;;20.60;14.23;;;;;;;3.89;80.46;99174.59;5093971;28;20020;-80
2021/12/10 13:43:03;;;;;;;8.55;6.60;;;;;;;3.96;80.04;99179.34;5093576;28;20031;-79
2021/12/10 13:45:29;;;;;;;10.05;5.30;;;;;;;3.79;79.53;99169.88;5106942;28;20044;-79
2021/12/10 13:48:04;;;;;;;11.30;5.22;;;;;;;3.92;80.33;99177.03;5093748;28;20028;-78
2021/12/10 13:50:39;;;;;;;11.27;6.63;;;;;;;3.83;81.60;99173.19;5075671;28;20051;-79
2021/12/10 13:53:11;;;;;;;16.15;10.45;;;;;;;3.77;82.15;99169.16;5093603;28;20107;-78
2021/12/10 13:55:44;;;;;;;14.40;5.90;;;;;;;3.81;82.33;99182.94;5093326;28;20566;-80
2021/12/10 13:58:33;;;;;;;93.78;60.95;;;;;;;3.94;82.32;99204.06;5093165;28;20058;-80
2021/12/10 14:01:30;;;;;;;18.90;11.53;;;;;;;3.98;82.60;99205.56;5075428;28;20058;-79
2021/12/10 14:04:07;;;;;;;14.68;7.40;;;;;;;3.92;82.38;99217.31;5075241;28;20478;-78
2021/12/10 14:06:38;;;;;;;12.75;7.82;;;;;;;3.97;83.56;99222.28;5087922;28;20049;-80
2021/12/10 14:09:09;;;;;;;17.55;10.45;;;;;;;3.90;82.99;99218.34;5055044;28;20025;-78
2021/12/10 14:11:52;;;;;;;15.93;7.43;;;;;;;3.86;82.58;99221.16;5059007;28;20023;-79
2021/12/10 14:14:18;;;;;;;12.45;7.10;;;;;;;3.76;82.88;99209.50;5108514;28;20028;-78
2021/12/10 14:16:56;;;;;;;22.17;7.18;;;;;;;3.92;83.39;99234.88;5092779;28;20056;-79
2021/12/10 14:19:48;;;;;;;10.32;6.30;;;;;;;3.90;83.09;99234.13;5092886;28;20034;-79
2021/12/10 14:22:16;;;;;;;15.25;7.25;;;;;;;3.86;83.49;99244.84;5092591;28;20367;-78
2021/12/10 14:24:52;;;;;;;12.38;7.18;;;;;;;3.83;82.90;99244.19;5092998;28;20024;-79
2021/12/10 14:27:24;;;;;;;8.88;6.35;;;;;;;3.80;82.75;99247.00;5092118;28;20546;-80
2021/12/10 14:30:08;;;;;;;16.63;10.48;;;;;;;3.83;82.89;99249.44;5089813;28;20394;-79
2021/12/10 14:32:33;;;;;;;14.38;7.80;;;;;;;3.76;81.92;99256.00;5082442;28;20028;-81
2021/12/10 14:35:10;;;;;;;13.68;8.18;;;;;;;3.80;83.33;99260.16;5083905;28;20050;-82
2021/12/10 14:37:56;;;;;;;10.95;8.32;;;;;;;3.81;83.49;99265.28;5092372;28;20489;-81
2021/12/10 14:40:27;;;;;;;14.10;8.93;;;;;;;3.78;82.38;99265.47;5085471;28;20119;-78
2021/12/10 14:43:15;;;;;;;10.80;7.82;;;;;;;3.69;82.58;99258.16;5082635;28;20424;-79
2021/12/10 14:46:10;;;;;;;14.10;10.77;;;;;;;3.68;83.23;99255.59;5087457;28;20073;-80
2021/12/10 14:48:39;;;;;;;16.73;10.43;;;;;;;3.79;83.17;99285.56;5080048;28;20031;-81
2021/12/10 14:51:13;;;;;;;12.00;9.48;;;;;;;3.79;82.80;99288.19;5086093;28;20024;-81
2021/12/10 14:53:46;;;;;;;11.38;7.60;;;;;;;3.48;81.83;99247.16;5090844;28;20382;-80
2021/12/10 14:56:39;;;;;;;14.02;9.43;;;;;;;3.80;82.83;99300.44;5081800;28;20055;-78
2021/12/10 14:59:05;;;;;;;19.85;13.60;;;;;;;3.78;82.75;99298.81;5073191;28;20038;-79
2021/12/10 15:01:32;;;;;;;24.55;17.63;;;;;;;3.76;83.10;99301.53;5091190;28;20101;-81
2021/12/10 15:04:01;;;;;;;21.02;14.75;;;;;;;3.84;83.31;99316.88;5088678;28;20057;-79
2021/12/10 15:06:27;;;;;;;26.42;19.88;;;;;;;3.73;83.26;99308.75;5087113;28;20136;-80
2021/12/10 15:08:57;;;;;;;35.10;25.65;;;;;;;3.80;83.70;99334.63;5089028;28;20569;-80
2021/12/10 15:11:37;;;;;;;;;;;;;;;3.91;83.40;99338.38;5087443;28;20027;-78
2021/12/10 15:14:13;;;;;;;14.20;8.57;;;;;;;3.79;84.96;99335.53;5086907;28;19916;-78
2021/12/10 15:16:43;;;;;;;15.20;11.00;;;;;;;3.68;85.10;99318.69;5087550;28;20031;-79
2021/12/10 15:19:08;;;;;;;15.00;8.40;;;;;;;3.77;85.67;99336.59;5090062;28;20027;-79
2021/12/10 15:21:46;;;;;;;20.20;9.88;;;;;;;3.78;85.59;99348.78;5088103;28;20031;-78
2021/12/10 15:24:29;;;;;;;17.08;11.43;;;;;;;3.71;86.56;99347.47;5085805;28;20048;-79
2021/12/10 15:27:16;;;;;;;12.95;9.02;;;;;;;3.76;86.16;99355.91;5082117;28;20034;-82
2021/12/10 15:29:53;;;;;;;17.65;11.57;;;;;;;3.77;86.08;99361.09;5087144;28;20020;-78
2021/12/10 15:32:29;;;;;;;12.88;7.93;;;;;;;3.74;86.56;99365.69;5086321;28;20475;-80
2021/12/10 15:35:03;;;;;;;16.98;10.15;;;;;;;3.70;86.11;99378.16;5090146;28;20060;-80
2021/12/10 15:37:31;;;;;;;10.85;8.43;;;;;;;3.72;86.75;99385.97;5087000;28;20023;-80
2021/12/10 15:40:06;;;;;;;12.88;8.82;;;;;;;3.62;86.90;99372.50;5083942;28;20075;-79
2021/12/10 15:42:32;;;;;;;13.60;8.57;;;;;;;3.72;87.30;99394.69;5090369;28;20032;-79
2021/12/10 15:44:58;;;;;;;15.52;8.55;;;;;;;3.69;87.01;99396.66;5091987;28;20034;-77
2021/12/10 15:47:26;;;;;;;15.07;7.90;;;;;;;3.65;87.28;99409.13;5090055;28;20031;-77
2021/12/10 15:49:53;;;;;;;15.50;9.25;;;;;;;3.65;87.08;99419.66;5092373;28;20477;-78
2021/12/10 15:52:22;;;;;;;9.82;8.52;;;;;;;3.62;87.80;99422.47;5090290;28;20467;-77
2021/12/10 15:54:53;;;;;;;21.23;8.68;;;;;;;3.62;87.15;99427.72;5065322;28;20036;-77
2021/12/10 15:57:25;;;;;;;15.15;9.98;;;;;;;3.61;87.16;99437.34;5085368;28;20024;-77
2021/12/10 15:59:59;;;;;;;11.55;7.78;;;;;;;3.55;87.16;99437.72;5090626;28;20052;-75
2021/12/10 16:02:25;;;;;;;12.85;9.32;;;;;;;3.43;87.35;99427.91;5090682;28;20557;-75
2021/12/10 16:04:57;;;;;;;19.17;11.75;;;;;;;3.45;87.71;99441.81;5090110;28;20471;-79
2021/12/10 16:07:29;;;;;;;11.55;7.90;;;;;;;3.55;87.47;99458.75;5090850;28;20545;-79
2021/12/10 16:10:10;;;;;;;11.43;8.93;;;;;;;3.57;87.66;99463.94;5078831;28;20112;-78
2021/12/10 16:12:37;;;;;;;14.18;11.20;;;;;;;3.52;87.97;99468.59;5092341;28;20130;-77
2021/12/10 16:15:06;;;;;;;15.25;11.45;;;;;;;3.54;88.18;99472.00;5093654;28;20417;-78
2021/12/10 16:17:32;;;;;;;17.10;10.95;;;;;;;3.61;88.12;99481.22;5085189;28;20055;-76
2021/12/10 16:19:57;;;;;;;17.98;9.95;;;;;;;3.50;87.83;99475.69;5085855;28;20059;-78
2021/12/10 16:22:27;;;;;;;14.40;10.90;;;;;;;3.57;88.17;99492.84;5068872;28;20471;-80
2021/12/10 16:24:56;;;;;;;17.52;9.63;;;;;;;3.63;88.29;99497.75;5060303;28;20094;-79
2021/12/10 16:27:39;;;;;;;15.82;10.60;;;;;;;3.56;88.33;99489.38;5083163;28;20024;-81
2021/12/10 16:30:31;;;;;;;17.13;9.65;;;;;;;3.68;88.64;99510.63;5095333;28;20054;-79
2021/12/10 16:32:59;;;;;;;16.30;9.40;;;;;;;3.66;88.08;99508.09;5093997;28;20064;-79
2021/12/10 16:35:37;;;;;;;20.02;10.60;;;;;;;3.32;88.16;99474.94;5086170;28;20032;-78
2021/12/10 16:38:10;;;;;;;14.05;10.00;;;;;;;3.65;87.80;99532.69;5082145;28;20487;-77
2021/12/10 16:40:39;;;;;;;16.02;10.32;;;;;;;3.55;87.80;99513.09;5060974;28;20475;-79
2021/12/10 16:43:09;;;;;;;17.08;10.20;;;;;;;3.59;88.44;99528.63;5085266;28;20162;-79
2021/12/10 16:45:38;;;;;;;14.23;11.27;;;;;;;3.40;88.22;99510.38;5085448;28;20024;-80
2021/12/10 16:48:04;;;;;;;17.57;12.50;;;;;;;3.49;88.21;99524.81;5088733;28;20028;-83
2021/12/10 16:50:34;;;;;;;15.70;11.48;;;;;;;3.57;88.03;99543.63;5086153;28;20016;-79
2021/12/10 16:53:00;;;;;;;18.20;13.18;;;;;;;3.42;88.49;99528.72;5088059;28;20443;-79
2021/12/10 16:55:29;;;;;;;17.75;12.80;;;;;;;3.36;88.51;99526.41;5084608;28;20028;-78
2021/12/10 16:58:03;;;;;;;51.20;34.63;;;;;;;3.57;88.80;99564.66;5066831;28;20085;-80
2021/12/10 17:00:35;;;;;;;18.58;13.23;;;;;;;3.58;88.19;99568.97;5095017;28;20020;-79
2021/12/10 17:03:00;;;;;;;23.23;15.20;;;;;;;3.52;88.20;99576.34;5076749;28;20032;-80
2021/12/10 17:05:35;;;;;;;19.02;13.32;;;;;;;3.53;87.68;99576.28;5094187;28;20139;-79
2021/12/10 17:08:06;;;;;;;21.63;15.30;;;;;;;3.53;88.20;99584.16;5075802;28;20040;-79
2021/12/10 17:10:45;;;;;;;19.75;12.57;;;;;;;3.49;88.09;99576.53;5094686;28;20023;-79
2021/12/10 17:13:45;;;;;;;15.23;12.23;;;;;;;3.56;87.77;99596.28;5094614;28;20027;-81
2021/12/10 17:16:14;;;;;;;26.95;21.38;;;;;;;3.49;88.43;99597.56;5076404;28;20020;-80
2021/12/10 17:18:41;;;;;;;15.65;12.90;;;;;;;3.43;88.62;99598.72;5094186;28;20584;-80
2021/12/10 17:21:17;;;;;;;16.25;12.70;;;;;;;3.52;88.56;99614.00;5094467;28;20039;-78
2021/12/10 17:23:44;;;;;;;13.68;12.10;;;;;;;3.46;87.95;99613.47;5094313;28;20044;-79
2021/12/10 17:26:14;;;;;;;14.63;11.50;;;;;;;3.36;88.52;99606.09;5094063;28;20536;-79
2021/12/10 17:28:45;;;;;;;14.43;12.32;;;;;;;3.40;88.55;99622.53;5094141;28;20111;-80
2021/12/10 17:31:24;;;;;;;17.50;13.05;;;;;;;3.37;89.05;99628.81;5075104;28;20086;-80
2021/12/10 17:33:58;;;;;;;18.00;13.20;;;;;;;3.42;88.69;99633.84;5073919;28;20036;-81
2021/12/10 17:36:27;;;;;;;16.55;12.65;;;;;;;3.35;88.86;99641.19;5072647;28;20021;-79
2021/12/10 17:38:53;;;;;;;18.58;13.65;;;;;;;3.39;88.67;99639.25;5073794;28;20239;-80
2021/12/10 17:41:31;;;;;;;21.35;15.18;;;;;;;3.42;88.90;99650.44;5089792;28;20095;-79
2021/12/10 17:43:59;;;;;;;20.10;16.08;;;;;;;3.37;89.19;99654.25;5073395;28;20025;-79
2021/12/10 17:46:30;;;;;;;23.17;16.77;;;;;;;3.37;88.93;99662.13;5073469;28;20103;-79
2021/12/10 17:49:01;;;;;;;23.20;16.95;;;;;;;3.39;88.36;99665.53;5055437;28;20562;-79
2021/12/10 17:51:31;;;;;;;24.45;18.83;;;;;;;3.34;88.70;99675.44;5084641;28;20020;-80
2021/12/10 17:54:04;;;;;;;29.35;20.33;;;;;;;3.25;88.64;99668.03;5093668;28;20032;-79
2021/12/10 17:56:30;;;;;;;30.95;23.08;;;;;;;3.32;88.80;99686.00;5093624;28;20020;-79
2021/12/10 17:58:58;;;;;;;26.70;20.77;;;;;;;3.34;87.92;99693.81;5093432;28;20016;-82
2021/12/10 18:01:27;;;;;;;31.90;19.38;;;;;;;3.29;88.38;99701.94;5093073;28;20084;-78
2021/12/10 18:03:56;;;;;;;27.15;19.50;;;;;;;3.19;88.45;99700.72;5093391;28;20134;-78
2021/12/10 18:06:26;;;;;;;27.67;19.17;;;;;;;3.14;88.32;99697.47;5093397;28;20494;-79
2021/12/10 18:08:52;;;;;;;28.55;19.50;;;;;;;3.32;88.40;99717.53;5075231;28;20034;-80
2021/12/10 18:11:19;;;;;;;28.70;20.27;;;;;;;3.15;88.75;99689.53;5093374;28;20032;-79
2021/12/10 18:13:48;;;;;;;24.98;19.08;;;;;;;3.16;88.55;99700.88;5092930;28;20032;-82
2021/12/10 18:16:18;;;;;;;25.25;19.20;;;;;;;3.29;88.45;99733.47;5093603;28;20050;-80
2021/12/10 18:18:45;;;;;;;22.27;17.15;;;;;;;3.30;88.24;99748.31;5093264;28;20028;-82
2021/12/10 18:21:13;;;;;;;23.70;17.40;;;;;;;3.32;88.58;99748.22;5075132;28;20055;-80
2021/12/10 18:23:48;;;;;;;24.23;17.83;;;;;;;3.17;88.81;99736.72;5092793;28;20107;-80
2021/12/10 18:26:20;;;;;;;22.35;17.25;;;;;;;3.27;88.73;99756.34;5093094;28;20028;-80
2021/12/10 18:29:00;;;;;;;24.23;18.15;;;;;;;3.28;89.24;99755.41;5092906;28;20110;-80
2021/12/10 18:31:30;;;;;;;24.17;19.67;;;;;;;3.26;89.14;99767.78;5093184;28;20028;-80
2021/12/10 18:34:00;;;;;;;26.40;20.00;;;;;;;3.29;89.25;99774.66;5092625;28;20047;-80
2021/12/10 18:36:28;;;;;;;24.80;19.35;;;;;;;3.27;88.73;99787.03;5093411;28;20426;-81
2021/12/10 18:39:07;;;;;;;27.00;20.35;;;;;;;3.18;88.91;99764.72;5092951;28;20027;-80
2021/12/10 18:41:37;;;;;;;23.10;20.33;;;;;;;3.05;89.21;99761.81;5092986;28;20023;-80
2021/12/10 18:44:05;;;;;;;23.42;19.08;;;;;;;3.27;89.17;99800.19;5092395;28;20073;-80
2021/12/10 18:46:31;;;;;;;24.65;18.50;;;;;;;3.28;88.65;99807.13;5092728;28;20028;-80
2021/12/10 18:48:58;;;;;;;24.13;18.15;;;;;;;3.03;88.77;99771.56;5092549;28;20378;-78
2021/12/10 18:51:41;;;;;;;24.95;19.25;;;;;;;3.31;89.08;99822.75;5092543;28;20082;-80
2021/12/10 18:54:11;;;;;;;25.35;19.75;;;;;;;2.94;89.49;99770.25;5092376;28;20027;-79
2021/12/10 18:56:53;;;;;;;28.45;20.92;;;;;;;2.98;89.39;99784.06;5074020;28;20032;-79
2021/12/10 18:59:24;;;;;;;27.13;20.90;;;;;;;3.16;89.14;99813.84;5092221;28;20070;-79
2021/12/10 19:02:00;;;;;;;26.73;20.17;;;;;;;3.15;89.51;99817.41;5092453;28;20032;-78
2021/12/10 19:04:31;;;;;;;26.42;20.42;;;;;;;3.22;89.01;99847.69;5092604;28;20085;-79
2021/12/10 19:07:11;;;;;;;24.27;20.17;;;;;;;3.08;89.25;99819.47;5092052;28;20059;-78